Time;durP1;ratioP1;P1;durP2;ratioP2;P2;SDS_P1;SDS_P2;PMS_P1;PMS_P2;Temp;Humidity;BMP_temperature;BMP_pressure;BME280_temperature;BME280_humidity;BME280_pressure;Samples;Min_cycle;Max_cycle;Signal;HPM_P1;HPM_P2
2022/04/14 00:00:24;;;;;;;12.73;6.28;;;;;;;15.43;80.67;101536.28;5075203;28;20044;-56
2022/04/14 00:02:52;;;;;;;13.55;6.57;;;;;;;15.47;80.37;101528.13;5064700;28;20052;-57
2022/04/14 00:05:19;;;;;;;16.88;5.97;;;;;;;15.60;79.71;101524.38;5071380;28;20048;-57
2022/04/14 00:07:47;;;;;;;14.10;6.22;;;;;;;15.46;80.18;101530.09;5073522;28;20063;-60
2022/04/14 00:10:15;;;;;;;12.90;6.10;;;;;;;15.43;80.43;101529.94;5057574;28;20634;-56
2022/04/14 00:12:42;;;;;;;10.80;5.88;;;;;;;15.55;80.07;101532.88;5074291;28;20518;-58
2022/04/14 00:15:11;;;;;;;11.63;5.88;;;;;;;15.44;80.36;101535.16;5071580;28;20064;-55
2022/04/14 00:17:38;;;;;;;12.57;6.05;;;;;;;15.09;82.09;101535.41;5054245;28;20053;-58
2022/04/14 00:20:11;;;;;;;12.57;6.00;;;;;;;15.09;82.44;101536.22;5074297;28;20056;-55
2022/04/14 00:22:38;;;;;;;12.32;6.57;;;;;;;15.15;82.58;101528.56;5071488;28;20060;-57
2022/04/14 00:25:06;;;;;;;10.18;5.88;;;;;;;15.36;81.45;101533.16;5073251;28;20052;-59
2022/04/14 00:27:33;;;;;;;15.20;5.88;;;;;;;15.34;81.35;101523.53;5062720;28;20056;-57
2022/04/14 00:30:01;;;;;;;11.93;5.72;;;;;;;15.09;82.17;101529.84;5072754;28;20056;-58
2022/04/14 00:32:31;;;;;;;10.63;6.00;;;;;;;15.23;82.09;101530.53;5076073;28;20067;-57
2022/04/14 00:34:58;;;;;;;11.53;5.80;;;;;;;15.21;81.73;101527.25;5073820;28;20056;-57
2022/04/14 00:37:25;;;;;;;12.55;6.57;;;;;;;15.08;82.11;101529.03;5065463;28;20044;-58
2022/04/14 00:39:53;;;;;;;12.68;6.07;;;;;;;14.96;83.36;101526.06;5072600;28;20052;-57
2022/04/14 00:42:20;;;;;;;15.02;6.45;;;;;;;15.05;83.30;101518.59;5066456;28;20057;-56
2022/04/14 00:44:47;;;;;;;13.18;6.40;;;;;;;14.75;83.87;101527.00;5068699;28;20073;-55
2022/04/14 00:47:15;;;;;;;14.40;6.53;;;;;;;14.81;84.07;101532.09;5055376;28;20051;-55
2022/04/14 00:49:42;;;;;;;15.80;6.75;;;;;;;14.75;84.19;101536.13;5074437;28;20055;-56
2022/04/14 00:52:10;;;;;;;10.55;6.32;;;;;;;14.88;84.11;101523.28;5073167;28;20508;-56
2022/04/14 00:54:37;;;;;;;11.93;6.20;;;;;;;15.00;83.29;101527.06;5073922;28;20044;-59
2022/04/14 00:57:05;;;;;;;12.38;6.90;;;;;;;14.98;83.20;101528.53;5058407;28;20048;-57
2022/04/14 00:59:32;;;;;;;11.60;6.38;;;;;;;14.77;84.03;101525.53;5072204;28;20051;-59
2022/04/14 01:02:00;;;;;;;12.48;7.07;;;;;;;14.88;84.10;101528.84;5061602;28;20048;-57
2022/04/14 01:04:27;;;;;;;14.82;6.32;;;;;;;14.70;84.01;101533.50;5077470;28;20056;-57
2022/04/14 01:06:55;;;;;;;13.77;6.88;;;;;;;14.54;84.50;101530.34;5074172;28;20048;-55
2022/04/14 01:09:26;;;;;;;12.85;7.05;;;;;;;14.55;85.45;101533.94;5071228;28;20048;-54
2022/04/14 01:11:54;;;;;;;14.05;6.20;;;;;;;14.55;85.29;101534.78;5072221;28;20077;-54
2022/04/14 01:14:35;;;;;;;14.57;6.63;;;;;;;14.33;86.52;101531.25;5072041;28;20067;-58
2022/04/14 01:17:05;;;;;;;17.00;6.82;;;;;;;14.38;85.88;101534.66;5074051;28;20045;-58
2022/04/14 01:19:33;;;;;;;;;;;;;;;14.35;86.21;101523.41;5071059;28;20048;-56
2022/04/14 01:22:07;;;;;;;13.68;6.10;;;;;;;14.30;86.54;101526.31;5073926;28;19924;-55
2022/04/14 01:24:34;;;;;;;11.15;5.60;;;;;;;14.39;86.12;101536.31;5069354;28;20087;-56
2022/04/14 01:27:02;;;;;;;11.38;5.35;;;;;;;14.29;86.33;101533.84;5059556;28;20045;-59
2022/04/14 01:29:30;;;;;;;16.52;6.35;;;;;;;14.52;85.64;101534.59;5070362;28;20460;-57
2022/04/14 01:31:58;;;;;;;10.85;6.30;;;;;;;14.55;84.89;101532.00;5071054;28;20048;-56
2022/04/14 01:34:25;;;;;;;11.55;5.63;;;;;;;14.68;84.24;101539.38;5043677;28;20068;-57
2022/04/14 01:36:53;;;;;;;16.05;6.30;;;;;;;14.64;84.16;101538.38;5066285;28;20415;-55
2022/04/14 01:39:20;;;;;;;10.15;5.80;;;;;;;14.35;85.25;101531.72;5072378;28;20071;-57
2022/04/14 01:41:47;;;;;;;12.20;6.45;;;;;;;14.60;84.69;101537.41;5069980;28;20128;-56
2022/04/14 01:44:14;;;;;;;12.60;5.65;;;;;;;14.50;84.38;101540.47;5065498;28;20045;-56
2022/04/14 01:46:42;;;;;;;13.88;5.78;;;;;;;14.48;85.08;101533.59;5057692;28;20049;-55
2022/04/14 01:49:12;;;;;;;9.73;5.60;;;;;;;14.18;86.12;101540.75;5072031;28;20052;-52
2022/04/14 01:51:39;;;;;;;10.25;5.53;;;;;;;14.21;86.76;101542.06;5073091;28;20040;-56
2022/04/14 01:54:06;;;;;;;10.63;5.45;;;;;;;14.21;86.29;101539.31;5071334;28;20056;-57
2022/04/14 01:56:36;;;;;;;10.15;5.60;;;;;;;14.10;87.17;101536.00;5063492;28;20059;-56
2022/04/14 01:59:04;;;;;;;;;;;;;;;14.34;85.99;101535.66;5071727;28;20041;-55
2022/04/14 02:01:31;;;;;;;13.45;5.70;;;;;;;14.33;86.10;101528.47;5064723;28;19925;-56
2022/04/14 02:03:58;;;;;;;14.38;5.30;;;;;;;14.39;85.41;101527.19;5062814;28;20404;-56
2022/04/14 02:06:26;;;;;;;11.55;5.85;;;;;;;14.39;84.94;101532.72;5060847;28;20059;-56
2022/04/14 02:08:53;;;;;;;13.52;5.53;;;;;;;14.35;85.76;101542.81;5073281;28;20045;-56
2022/04/14 02:11:20;;;;;;;12.32;5.60;;;;;;;14.48;84.68;101526.09;5070683;28;20053;-57
2022/04/14 02:13:48;;;;;;;12.55;5.47;;;;;;;14.47;84.56;101526.44;5068178;28;20052;-57
2022/04/14 02:16:15;;;;;;;12.07;5.47;;;;;;;14.42;84.80;101523.78;5067508;28;20508;-56
2022/04/14 02:18:42;;;;;;;10.43;5.25;;;;;;;14.37;85.03;101530.28;5071792;28;20056;-58
2022/04/14 02:21:10;;;;;;;10.98;5.57;;;;;;;14.37;85.18;101529.47;5055059;28;20060;-58
2022/04/14 02:23:37;;;;;;;14.55;5.70;;;;;;;14.48;84.86;101537.19;5072382;28;20068;-60
2022/04/14 02:26:05;;;;;;;14.18;5.95;;;;;;;14.39;84.69;101527.19;5071384;28;20048;-59
2022/04/14 02:28:32;;;;;;;11.80;5.18;;;;;;;14.43;85.29;101525.41;5065036;28;20179;-58
2022/04/14 02:31:00;;;;;;;10.40;5.20;;;;;;;14.48;84.55;101526.09;5049255;28;20045;-57
2022/04/14 02:33:27;;;;;;;15.63;5.70;;;;;;;14.32;84.81;101516.56;5068055;28;20072;-58
2022/04/14 02:35:55;;;;;;;12.13;5.93;;;;;;;13.92;86.42;101528.69;5067312;28;20045;-57
2022/04/14 02:38:22;;;;;;;12.10;6.28;;;;;;;14.08;86.63;101529.13;5057698;28;20041;-59
2022/04/14 02:40:49;;;;;;;10.20;5.55;;;;;;;14.06;86.57;101531.38;5064503;28;20044;-57
2022/04/14 02:43:17;;;;;;;11.85;6.00;;;;;;;14.17;86.05;101524.44;5072164;28;20140;-55
2022/04/14 02:45:44;;;;;;;10.73;5.60;;;;;;;14.19;85.84;101530.50;5073564;28;20060;-57
2022/04/14 02:48:11;;;;;;;11.27;5.70;;;;;;;14.34;85.58;101533.69;5074946;28;20511;-56
2022/04/14 02:50:43;;;;;;;18.35;6.28;;;;;;;14.27;84.93;101533.34;5063913;28;20056;-56
2022/04/14 02:53:11;;;;;;;12.55;6.47;;;;;;;14.01;86.45;101546.19;5076563;28;20067;-58
2022/04/14 02:55:38;;;;;;;14.57;5.97;;;;;;;13.97;86.90;101545.19;5074518;28;20055;-58
2022/04/14 02:58:05;;;;;;;9.50;5.75;;;;;;;14.08;87.20;101541.03;5076516;28;20055;-55
2022/04/14 03:00:33;;;;;;;11.27;5.95;;;;;;;14.17;86.08;101530.81;5074679;28;20214;-59
2022/04/14 03:03:01;;;;;;;12.25;5.90;;;;;;;14.22;85.85;101532.63;5076315;28;20068;-59
2022/04/14 03:05:29;;;;;;;14.07;5.88;;;;;;;14.25;85.84;101527.25;5067487;28;20119;-58
2022/04/14 03:07:57;;;;;;;14.77;6.13;;;;;;;14.08;86.37;101526.34;5076819;28;20056;-58
2022/04/14 03:10:27;;;;;;;11.45;5.70;;;;;;;14.00;86.69;101529.88;5071650;28;20056;-58
2022/04/14 03:12:57;;;;;;;12.27;5.63;;;;;;;13.99;86.91;101526.28;5077910;28;20032;-57
2022/04/14 03:15:28;;;;;;;16.15;6.13;;;;;;;14.18;85.34;101526.91;5082061;28;20051;-59
2022/04/14 03:17:56;;;;;;;14.45;5.88;;;;;;;14.13;85.84;101535.34;5076101;28;20502;-58
2022/04/14 03:20:24;;;;;;;12.52;6.18;;;;;;;14.15;85.34;101530.31;5066387;28;20081;-54
2022/04/14 03:22:51;;;;;;;13.10;6.35;;;;;;;13.76;87.28;101541.28;5075345;28;20392;-57
2022/04/14 03:25:20;;;;;;;10.80;5.90;;;;;;;13.64;88.14;101546.56;5066984;28;20417;-59
2022/04/14 03:27:48;;;;;;;11.73;5.95;;;;;;;13.94;87.65;101545.81;5084587;28;20048;-58
2022/04/14 03:30:15;;;;;;;12.40;5.88;;;;;;;13.93;87.51;101540.59;5049356;28;20052;-58
2022/04/14 03:32:44;;;;;;;13.32;6.13;;;;;;;14.18;85.86;101537.97;5090806;28;20068;-56
2022/04/14 03:35:12;;;;;;;13.57;5.68;;;;;;;14.20;85.68;101540.44;5074608;28;20048;-56
2022/04/14 03:37:41;;;;;;;15.05;6.20;;;;;;;14.15;85.44;101548.88;5076183;28;20048;-58
2022/04/14 03:40:08;;;;;;;14.45;6.65;;;;;;;14.35;85.10;101545.59;5071034;28;20396;-59
2022/04/14 03:42:36;;;;;;;18.75;6.22;;;;;;;14.42;84.16;101544.00;5075031;28;20107;-57
2022/04/14 03:45:04;;;;;;;22.23;6.82;;;;;;;14.28;84.47;101548.81;5082395;28;20059;-60
2022/04/14 03:47:32;;;;;;;16.40;6.72;;;;;;;14.28;84.74;101548.00;5075157;28;20396;-58
2022/04/14 03:49:59;;;;;;;22.52;7.53;;;;;;;14.11;85.62;101550.63;5066822;28;20599;-56
2022/04/14 03:52:26;;;;;;;20.02;6.50;;;;;;;13.74;87.39;101559.34;5069138;28;20052;-56
2022/04/14 03:54:54;;;;;;;13.38;6.22;;;;;;;13.78;87.62;101561.16;5072917;28;20048;-58
2022/04/14 03:57:21;;;;;;;17.65;6.70;;;;;;;14.05;87.25;101569.34;5075196;28;20044;-56
2022/04/14 03:59:49;;;;;;;12.00;6.45;;;;;;;14.36;84.84;101577.72;5074766;28;20045;-56
2022/04/14 04:02:16;;;;;;;15.15;6.95;;;;;;;14.02;85.18;101569.16;5090289;28;20060;-56
2022/04/14 04:04:44;;;;;;;15.32;6.53;;;;;;;13.80;87.29;101566.38;5071148;28;20041;-53
2022/04/14 04:07:11;;;;;;;15.50;6.65;;;;;;;13.91;87.54;101571.38;5068646;28;20052;-55
2022/04/14 04:09:38;;;;;;;14.13;6.75;;;;;;;14.04;86.89;101566.88;5073289;28;20055;-57
2022/04/14 04:12:07;;;;;;;14.60;6.68;;;;;;;13.95;86.79;101568.78;5073473;28;20041;-56
2022/04/14 04:14:34;;;;;;;15.32;6.60;;;;;;;13.93;87.19;101558.00;5069726;28;20515;-54
2022/04/14 04:17:01;;;;;;;13.98;6.18;;;;;;;14.05;86.39;101560.22;5068482;28;20044;-57
2022/04/14 04:19:28;;;;;;;16.42;6.60;;;;;;;14.10;86.10;101552.59;5072910;28;20049;-58
2022/04/14 04:21:56;;;;;;;15.52;6.05;;;;;;;14.17;85.64;101550.22;5072898;28;20051;-58
2022/04/14 04:24:23;;;;;;;10.10;5.70;;;;;;;14.19;85.00;101531.28;5073536;28;20053;-57
2022/04/14 04:26:50;;;;;;;12.30;6.60;;;;;;;14.05;85.51;101538.06;5074754;28;20052;-58
2022/04/14 04:29:18;;;;;;;15.85;6.63;;;;;;;13.64;87.35;101549.34;5072904;28;20041;-57
2022/04/14 04:31:45;;;;;;;13.75;6.95;;;;;;;13.54;88.63;101544.03;5063132;28;20044;-56
2022/04/14 04:34:13;;;;;;;16.35;6.75;;;;;;;13.39;89.04;101550.75;5073833;28;20084;-56
2022/04/14 04:36:40;;;;;;;16.55;7.40;;;;;;;13.33;90.24;101559.47;5073256;28;20045;-58
2022/04/14 04:39:07;;;;;;;15.13;7.03;;;;;;;13.41;90.10;101564.25;5072567;28;20049;-58
2022/04/14 04:41:34;;;;;;;14.65;7.80;;;;;;;13.40;89.52;101571.78;5063033;28;20049;-57
2022/04/14 04:44:04;;;;;;;15.10;7.18;;;;;;;13.27;90.61;101578.13;5070824;28;20059;-58
2022/04/14 04:46:32;;;;;;;16.10;7.63;;;;;;;13.21;90.86;101587.69;5074199;28;20045;-57
2022/04/14 04:48:59;;;;;;;16.13;7.78;;;;;;;13.19;91.11;101586.34;5074098;28;20056;-55
2022/04/14 04:51:26;;;;;;;17.92;7.70;;;;;;;13.34;91.25;101588.78;5069528;28;20083;-54
2022/04/14 04:53:54;;;;;;;14.02;8.02;;;;;;;13.20;91.01;101591.56;5073162;28;20496;-56
2022/04/14 04:56:21;;;;;;;13.23;8.00;;;;;;;13.40;90.48;101601.38;5074251;28;20048;-60
2022/04/14 04:58:48;;;;;;;15.05;8.30;;;;;;;13.69;88.80;101595.44;5073268;28;20550;-59
2022/04/14 05:01:16;;;;;;;14.13;7.88;;;;;;;13.52;88.25;101610.78;5072436;28;20516;-59
2022/04/14 05:03:43;;;;;;;13.02;8.35;;;;;;;13.51;88.86;101600.84;5073231;28;20056;-60
2022/04/14 05:06:11;;;;;;;15.68;8.82;;;;;;;13.33;89.51;101599.03;5070240;28;20059;-58
2022/04/14 05:08:38;;;;;;;13.63;8.25;;;;;;;13.25;90.77;101594.22;5073236;28;20432;-57
2022/04/14 05:11:08;;;;;;;14.40;8.45;;;;;;;13.42;90.64;101596.38;5075796;28;20404;-56
2022/04/14 05:13:35;;;;;;;16.67;9.50;;;;;;;13.37;90.56;101596.47;5073824;28;20053;-58
2022/04/14 05:16:04;;;;;;;15.43;8.63;;;;;;;13.55;89.43;101587.19;5072806;28;20753;-59
2022/04/14 05:18:33;;;;;;;13.60;8.13;;;;;;;13.67;89.19;101587.44;5086121;28;20053;-58
2022/04/14 05:21:00;;;;;;;19.83;8.70;;;;;;;13.79;88.06;101586.91;5073079;28;20491;-58
2022/04/14 05:23:27;;;;;;;17.85;8.88;;;;;;;13.63;87.63;101593.94;5072419;28;20053;-55
2022/04/14 05:25:57;;;;;;;14.65;8.25;;;;;;;13.48;88.77;101595.09;5073257;28;20044;-57
2022/04/14 05:28:25;;;;;;;19.45;8.02;;;;;;;13.56;88.55;101600.72;5064995;28;20051;-57
2022/04/14 05:30:52;;;;;;;19.77;8.65;;;;;;;13.45;88.30;101598.50;5052019;28;20488;-58
2022/04/14 05:33:20;;;;;;;16.63;8.48;;;;;;;13.58;88.26;101603.19;5071901;28;20358;-57
2022/04/14 05:35:47;;;;;;;15.50;8.20;;;;;;;13.58;87.92;101606.75;5070221;28;20714;-58
2022/04/14 05:38:15;;;;;;;14.75;9.07;;;;;;;13.56;87.98;101613.75;5069991;28;20052;-60
2022/04/14 05:40:45;;;;;;;17.92;9.02;;;;;;;13.70;87.96;101613.72;5073772;28;20059;-59
2022/04/14 05:43:23;;;;;;;14.65;8.88;;;;;;;13.77;86.33;101614.94;5073315;28;20064;-57
2022/04/14 05:45:50;;;;;;;23.73;8.88;;;;;;;13.63;87.03;101621.63;5067881;28;20089;-60
2022/04/14 05:48:18;;;;;;;16.33;8.68;;;;;;;13.50;87.81;101620.53;5072026;28;20660;-59
2022/04/14 05:50:46;;;;;;;17.08;9.27;;;;;;;13.28;89.29;101618.53;5067661;28;20048;-57
2022/04/14 05:53:14;;;;;;;22.27;8.93;;;;;;;13.43;89.37;101612.66;5072570;28;20052;-59
2022/04/14 05:55:44;;;;;;;17.42;8.70;;;;;;;13.54;88.71;101616.00;5072253;28;20143;-58
2022/04/14 05:58:12;;;;;;;16.30;8.65;;;;;;;13.63;87.86;101619.69;5071000;28;20049;-59
2022/04/14 06:00:40;;;;;;;16.50;9.50;;;;;;;13.55;88.13;101624.00;5069839;28;20056;-56
2022/04/14 06:03:07;;;;;;;15.23;8.60;;;;;;;13.66;88.15;101623.75;5071999;28;20045;-60
2022/04/14 06:05:35;;;;;;;15.07;9.25;;;;;;;13.65;88.24;101624.91;5069638;28;20071;-60
2022/04/14 06:08:03;;;;;;;16.48;8.88;;;;;;;13.81;87.21;101626.19;5071317;28;20160;-60
2022/04/14 06:10:30;;;;;;;18.52;9.07;;;;;;;13.77;86.55;101620.47;5076015;28;20044;-60
2022/04/14 06:12:57;;;;;;;17.05;9.07;;;;;;;13.72;87.32;101625.28;5072705;28;20140;-63
2022/04/14 06:15:29;;;;;;;18.20;9.52;;;;;;;13.86;87.04;101618.56;5069401;28;20056;-59
2022/04/14 06:17:57;;;;;;;20.40;10.02;;;;;;;13.79;86.47;101620.16;5069777;28;20551;-61
2022/04/14 06:20:24;;;;;;;17.77;9.98;;;;;;;13.88;86.69;101627.38;5068578;28;20045;-59
2022/04/14 06:22:52;;;;;;;22.88;10.00;;;;;;;13.87;86.39;101631.28;5054396;28;20052;-58
2022/04/14 06:25:22;;;;;;;19.48;10.50;;;;;;;14.03;85.99;101637.28;5073651;28;20045;-59
2022/04/14 06:27:51;;;;;;;16.73;10.63;;;;;;;13.94;86.43;101640.00;5071827;28;20057;-60
2022/04/14 06:30:19;;;;;;;24.13;11.93;;;;;;;13.79;85.96;101645.06;5069211;28;20037;-58
2022/04/14 06:32:59;;;;;;;26.05;13.23;;;;;;;13.44;88.59;101650.25;5061610;28;20052;-59
2022/04/14 06:35:27;;;;;;;18.58;12.05;;;;;;;13.41;89.16;101663.88;5064019;28;20057;-58
2022/04/14 06:37:55;;;;;;;23.15;14.95;;;;;;;13.03;91.20;101665.25;5075488;28;20053;-56
2022/04/14 06:40:22;;;;;;;26.05;17.63;;;;;;;12.90;92.57;101661.31;5065500;28;20044;-61
2022/04/14 06:42:59;;;;;;;25.25;17.50;;;;;;;12.94;92.48;101667.03;5073459;28;20053;-59
2022/04/14 06:45:28;;;;;;;26.67;16.40;;;;;;;13.07;92.42;101669.03;5051352;28;20055;-61
2022/04/14 06:47:56;;;;;;;21.63;17.25;;;;;;;13.46;92.24;101672.09;5073367;28;20081;-60
2022/04/14 06:50:23;;;;;;;29.92;17.13;;;;;;;13.74;93.13;101664.56;5069893;28;20613;-65
2022/04/14 06:52:53;;;;;;;28.13;16.98;;;;;;;14.08;93.58;101662.91;5063059;28;20048;-60
2022/04/14 06:55:21;;;;;;;;;;;;;;;14.07;90.00;101663.25;5069349;28;20079;-61
2022/04/14 06:57:49;;;;;;;24.80;16.63;;;;;;;14.43;88.32;101662.06;5074653;28;19936;-59
2022/04/14 07:00:18;;;;;;;21.80;16.83;;;;;;;14.51;86.51;101668.78;5070167;28;20384;-59
2022/04/14 07:02:49;;;;;;;22.73;15.68;;;;;;;14.82;85.55;101664.06;5068005;28;20051;-60
2022/04/14 07:05:17;;;;;;;26.70;16.08;;;;;;;14.68;83.60;101668.09;5068312;28;20051;-59
2022/04/14 07:07:45;;;;;;;25.10;16.33;;;;;;;14.62;84.73;101668.22;5071695;28;20064;-59
2022/04/14 07:10:13;;;;;;;31.98;15.93;;;;;;;14.57;85.42;101678.63;5067142;28;20047;-59
2022/04/14 07:12:41;;;;;;;26.05;16.42;;;;;;;14.24;87.20;101678.00;5063720;28;20068;-59
2022/04/14 07:15:10;;;;;;;29.05;16.60;;;;;;;14.28;86.58;101670.75;5060541;28;20053;-58
2022/04/14 07:17:37;;;;;;;24.27;15.70;;;;;;;14.72;85.39;101675.44;5074596;28;20057;-60
2022/04/14 07:20:09;;;;;;;26.15;15.63;;;;;;;14.91;83.72;101677.97;5059219;28;20045;-58
2022/04/14 07:22:45;;;;;;;22.23;15.40;;;;;;;14.56;84.10;101683.34;5057667;28;20053;-58
2022/04/14 07:25:13;;;;;;;22.77;15.48;;;;;;;14.22;85.45;101680.31;5079659;28;20133;-59
2022/04/14 07:27:40;;;;;;;25.38;15.38;;;;;;;14.19;84.96;101683.69;5067247;28;20501;-57
2022/04/14 07:30:08;;;;;;;25.33;16.63;;;;;;;14.52;84.23;101678.75;5074639;28;20051;-59
2022/04/14 07:32:37;;;;;;;27.73;17.83;;;;;;;14.74;82.63;101686.22;5075016;28;20369;-58
2022/04/14 07:35:05;;;;;;;26.25;15.88;;;;;;;14.71;82.75;101678.53;5077268;28;20044;-59
2022/04/14 07:37:33;;;;;;;22.45;16.65;;;;;;;14.91;82.22;101687.13;5078233;28;20044;-59
2022/04/14 07:40:00;;;;;;;27.48;18.13;;;;;;;15.23;81.33;101677.63;5075559;28;20048;-60
2022/04/14 07:42:38;;;;;;;26.25;19.48;;;;;;;15.05;80.62;101682.31;5069573;28;20538;-58
2022/04/14 07:45:08;;;;;;;25.80;16.73;;;;;;;14.89;81.03;101681.06;5064691;28;20104;-59
2022/04/14 07:47:41;;;;;;;30.52;16.67;;;;;;;15.08;80.59;101678.09;5069809;28;20072;-58
2022/04/14 07:50:14;;;;;;;24.15;17.33;;;;;;;15.17;80.09;101685.28;5073063;28;20040;-59
2022/04/14 07:52:52;;;;;;;25.40;16.75;;;;;;;15.58;78.87;101690.53;5068682;28;20052;-57
2022/04/14 07:55:23;;;;;;;25.63;16.67;;;;;;;15.43;78.50;101694.56;5073656;28;20053;-60
2022/04/14 07:57:51;;;;;;;26.52;17.83;;;;;;;15.05;79.26;101696.19;5061978;28;20538;-62
2022/04/14 08:00:19;;;;;;;27.85;18.17;;;;;;;15.03;80.59;101701.22;5073240;28;20040;-62
2022/04/14 08:02:47;;;;;;;33.03;18.13;;;;;;;15.20;80.34;101686.63;5066188;28;20040;-62
2022/04/14 08:05:14;;;;;;;31.67;19.83;;;;;;;15.03;80.79;101695.66;5073232;28;20055;-62
2022/04/14 08:07:41;;;;;;;28.50;18.85;;;;;;;14.93;81.02;101693.19;5065569;28;20060;-62
2022/04/14 08:10:09;;;;;;;29.33;18.33;;;;;;;14.98;81.30;101693.03;5062415;28;20047;-61
2022/04/14 08:12:36;;;;;;;27.58;18.55;;;;;;;15.11;80.98;101683.81;5073913;28;20763;-60
2022/04/14 08:15:04;;;;;;;26.50;18.10;;;;;;;15.15;79.82;101690.34;5068845;28;20060;-61
2022/04/14 08:17:33;;;;;;;25.48;18.50;;;;;;;15.18;80.16;101688.88;5061579;28;20049;-62
2022/04/14 08:20:00;;;;;;;29.27;18.08;;;;;;;15.26;79.89;101688.09;5066608;28;20041;-61
2022/04/14 08:22:27;;;;;;;32.70;18.88;;;;;;;15.45;78.51;101681.16;5066257;28;20051;-61
2022/04/14 08:24:55;;;;;;;35.38;18.58;;;;;;;15.46;78.36;101684.78;5066653;28;20079;-61
2022/04/14 08:27:22;;;;;;;31.30;20.02;;;;;;;15.62;78.11;101683.19;5071660;28;20412;-63
2022/04/14 08:29:49;;;;;;;26.25;19.63;;;;;;;15.66;77.57;101692.47;5068570;28;20942;-60
2022/04/14 08:32:16;;;;;;;34.45;20.05;;;;;;;15.76;77.28;101694.94;5045902;28;20504;-61
2022/04/14 08:34:45;;;;;;;27.23;19.70;;;;;;;15.98;76.26;101692.06;5068152;28;20064;-62
2022/04/14 08:37:12;;;;;;;32.33;20.63;;;;;;;15.70;76.43;101688.75;5084208;28;20045;-60
2022/04/14 08:39:40;;;;;;;29.48;18.75;;;;;;;15.58;76.42;101696.06;5062673;28;20064;-61
2022/04/14 08:42:16;;;;;;;28.45;17.33;;;;;;;15.68;76.41;101696.59;5065596;28;20401;-60
2022/04/14 08:44:47;;;;;;;26.33;17.25;;;;;;;15.83;75.53;101698.06;5066759;28;20408;-60
2022/04/14 08:47:15;;;;;;;27.92;18.42;;;;;;;16.18;74.34;101696.16;5065843;28;20500;-61
2022/04/14 08:49:44;;;;;;;33.65;19.33;;;;;;;16.03;74.00;101694.66;5059805;28;20059;-61
2022/04/14 08:52:15;;;;;;;33.20;20.17;;;;;;;16.02;73.86;101695.81;5057714;28;20052;-60
2022/04/14 08:54:44;;;;;;;38.60;19.48;;;;;;;16.01;74.46;101687.78;5065796;28;20040;-61
2022/04/14 08:57:15;;;;;;;35.30;18.52;;;;;;;16.21;72.65;101701.88;5064944;28;20060;-60
2022/04/14 08:59:45;;;;;;;31.05;17.63;;;;;;;15.98;73.00;101705.94;5068970;28;20048;-61
2022/04/14 09:02:14;;;;;;;30.58;16.15;;;;;;;15.67;72.97;101697.72;5068084;28;21580;-63
2022/04/14 09:04:43;;;;;;;29.25;17.17;;;;;;;15.81;72.64;101700.38;5066935;28;20055;-61
2022/04/14 09:07:11;;;;;;;25.25;16.90;;;;;;;15.97;72.35;101701.50;5071168;28;20060;-61
2022/04/14 09:09:39;;;;;;;29.10;17.45;;;;;;;16.19;71.50;101701.38;5051303;28;20044;-61
2022/04/14 09:12:07;;;;;;;29.02;17.30;;;;;;;15.86;71.36;101704.94;5061599;28;20153;-60
2022/04/14 09:14:34;;;;;;;27.50;16.33;;;;;;;15.83;71.99;101705.59;5046549;28;20059;-61
2022/04/14 09:17:02;;;;;;;23.48;16.15;;;;;;;16.14;71.03;101712.66;5065643;28;20071;-61
2022/04/14 09:19:33;;;;;;;23.17;16.25;;;;;;;16.15;70.69;101708.72;5047027;28;20064;-61
2022/04/14 09:22:07;;;;;;;32.85;14.38;;;;;;;16.18;69.85;101708.06;5061602;28;20044;-61
2022/04/14 09:24:48;;;;;;;25.15;13.98;;;;;;;16.39;69.09;101700.69;5062922;28;20056;-61
2022/04/14 09:27:28;;;;;;;20.75;13.45;;;;;;;16.54;67.53;101705.81;5057938;28;20140;-61
2022/04/14 09:30:00;;;;;;;22.45;13.32;;;;;;;16.22;68.03;101702.66;5064679;28;20044;-61
2022/04/14 09:32:38;;;;;;;23.35;12.75;;;;;;;16.40;68.09;101709.88;5064790;28;20052;-61
2022/04/14 09:35:08;;;;;;;23.35;12.70;;;;;;;16.41;67.25;101701.19;5067884;28;20048;-61
2022/04/14 09:37:36;;;;;;;16.10;11.90;;;;;;;16.10;68.12;101705.28;5070202;28;20045;-62
2022/04/14 09:40:11;;;;;;;20.67;12.18;;;;;;;16.09;68.06;101703.66;5069978;28;20056;-61
2022/04/14 09:42:41;;;;;;;17.55;11.82;;;;;;;16.00;68.24;101698.09;5080480;28;20056;-61
2022/04/14 09:45:26;;;;;;;17.45;12.43;;;;;;;16.12;68.07;101698.28;5070702;28;20079;-62
2022/04/14 09:48:14;;;;;;;22.85;10.98;;;;;;;16.51;66.95;101694.53;5062188;28;20053;-61
2022/04/14 09:50:47;;;;;;;17.25;10.93;;;;;;;16.54;64.99;101685.50;5061452;28;20049;-62
2022/04/14 09:53:21;;;;;;;17.35;10.60;;;;;;;16.58;64.93;101692.84;5077253;28;20049;-62
2022/04/14 09:55:51;;;;;;;16.83;10.80;;;;;;;16.67;65.30;101687.28;5075371;28;20091;-61
2022/04/14 09:58:19;;;;;;;21.33;10.48;;;;;;;16.85;63.73;101695.25;5072026;28;20403;-62
2022/04/14 10:00:48;;;;;;;17.20;8.90;;;;;;;16.91;62.05;101701.47;5082132;28;20044;-62
2022/04/14 10:03:19;;;;;;;19.25;9.57;;;;;;;16.78;62.71;101692.16;5085750;28;20059;-61
2022/04/14 10:05:49;;;;;;;20.88;10.75;;;;;;;16.98;62.95;101687.84;5071642;28;20053;-62
2022/04/14 10:08:17;;;;;;;18.05;10.82;;;;;;;17.27;62.35;101689.84;5075756;28;20049;-61
2022/04/14 10:10:48;;;;;;;27.48;13.40;;;;;;;17.11;62.07;101703.53;5068547;28;20068;-61
2022/04/14 10:13:18;;;;;;;16.80;9.55;;;;;;;16.79;62.43;101701.31;5071003;28;20075;-61
2022/04/14 10:15:46;;;;;;;19.05;10.00;;;;;;;17.05;62.32;101692.91;5065238;28;20040;-61
2022/04/14 10:18:17;;;;;;;15.93;9.30;;;;;;;17.17;60.35;101688.28;5071889;28;20048;-61
2022/04/14 10:20:46;;;;;;;13.70;8.38;;;;;;;17.40;59.86;101680.47;5068081;28;20567;-61
2022/04/14 10:23:14;;;;;;;14.57;9.20;;;;;;;17.34;59.48;101684.59;5074195;28;20036;-61
2022/04/14 10:25:42;;;;;;;12.90;9.02;;;;;;;17.27;59.41;101678.72;5072212;28;20041;-61
2022/04/14 10:28:15;;;;;;;15.43;8.68;;;;;;;17.41;58.91;101676.53;5067880;28;20036;-63
2022/04/14 10:30:55;;;;;;;18.35;8.57;;;;;;;17.40;58.59;101672.91;5062981;28;20064;-62
2022/04/14 10:33:23;;;;;;;26.52;16.92;;;;;;;17.21;58.88;101668.94;5061888;28;20040;-62
2022/04/14 10:35:52;;;;;;;32.90;23.08;;;;;;;17.38;57.80;101675.22;5070649;28;20055;-62
2022/04/14 10:38:28;;;;;;;15.32;8.50;;;;;;;17.62;57.95;101671.84;5072832;28;20435;-62
2022/04/14 10:41:02;;;;;;;14.25;7.95;;;;;;;17.44;57.56;101668.31;5069929;28;20049;-63
2022/04/14 10:43:32;;;;;;;15.88;8.68;;;;;;;17.48;57.54;101666.53;5066242;28;20067;-63
2022/04/14 10:46:00;;;;;;;15.00;8.40;;;;;;;18.06;56.51;101664.78;5074996;28;20055;-64
2022/04/14 10:48:32;;;;;;;15.25;8.23;;;;;;;18.03;56.20;101659.91;5071612;28;20330;-63
2022/04/14 10:51:28;;;;;;;13.02;7.63;;;;;;;17.82;56.61;101663.50;5073102;28;20091;-63
2022/04/14 10:54:06;;;;;;;12.13;7.47;;;;;;;17.68;56.03;101664.91;5069693;28;20048;-63
2022/04/14 10:56:33;;;;;;;12.10;7.13;;;;;;;17.72;56.39;101666.69;5070003;28;20119;-64
2022/04/14 10:59:02;;;;;;;11.95;7.28;;;;;;;17.92;55.09;101656.72;5073748;28;20052;-63
2022/04/14 11:01:48;;;;;;;15.43;6.90;;;;;;;17.99;54.97;101668.13;5073387;28;20067;-62
2022/04/14 11:04:41;;;;;;;12.77;7.05;;;;;;;18.27;55.03;101657.22;5066359;28;20045;-63
2022/04/14 11:07:12;;;;;;;11.65;7.47;;;;;;;18.03;54.70;101657.13;5069214;28;20074;-61
2022/04/14 11:09:42;;;;;;;10.48;6.82;;;;;;;17.91;55.08;101655.88;5074176;28;20452;-63
2022/04/14 11:12:10;;;;;;;;;;;;;;;17.81;55.17;101666.63;5074401;28;20059;-62
2022/04/14 11:14:44;;;;;;;13.88;6.57;;;;;;;17.73;54.62;101664.72;5067578;28;19920;-62
2022/04/14 11:17:38;;;;;;;11.77;5.75;;;;;;;17.89;54.53;101677.72;5067843;28;20048;-62
2022/04/14 11:20:27;;;;;;;10.25;5.47;;;;;;;18.12;52.90;101669.81;5064851;28;20592;-62
2022/04/14 11:23:08;;;;;;;13.57;6.60;;;;;;;18.20;52.71;101665.34;5073506;28;20052;-62